Time;durP1;ratioP1;P1;durP2;ratioP2;P2;SDS_P1;SDS_P2;PMS_P1;PMS_P2;Temp;Humidity;BMP_temperature;BMP_pressure;BME280_temperature;BME280_humidity;BME280_pressure;Samples;Min_cycle;Max_cycle;Signal;HPM_P1;HPM_P2
2023/02/10 00:01:43;;;;;;;24.27;16.15;;;;;;;14.75;36.41;102375.59;5112272;28;20123;-63
2023/02/10 00:04:13;;;;;;;25.80;16.63;;;;;;;14.71;36.21;102370.44;5112080;28;20047;-62
2023/02/10 00:06:42;;;;;;;24.30;16.10;;;;;;;14.70;36.51;102377.63;5112129;28;20044;-63
2023/02/10 00:09:12;;;;;;;24.38;15.90;;;;;;;14.66;36.54;102375.13;5112092;28;20123;-63
2023/02/10 00:12:00;;;;;;;25.13;16.40;;;;;;;14.61;36.64;102372.66;5112153;28;20047;-63
2023/02/10 00:14:30;;;;;;;25.40;18.05;;;;;;;14.55;36.58;102364.88;5112143;28;20051;-63
2023/02/10 00:16:59;;;;;;;26.02;16.80;;;;;;;14.53;36.54;102369.44;5112156;28;20040;-63
2023/02/10 00:19:30;;;;;;;24.25;16.70;;;;;;;14.51;36.35;102374.00;5112143;28;20385;-61
2023/02/10 00:21:58;;;;;;;26.80;17.45;;;;;;;14.46;36.04;102376.88;5112014;28;20500;-61
2023/02/10 00:24:27;;;;;;;25.65;18.20;;;;;;;14.45;36.24;102376.94;5112126;28;20048;-62
2023/02/10 00:26:55;;;;;;;24.48;16.92;;;;;;;14.42;36.28;102379.72;5112022;28;20039;-62
2023/02/10 00:29:23;;;;;;;25.20;17.95;;;;;;;14.38;36.24;102375.41;5111818;28;20058;-62
2023/02/10 00:31:53;;;;;;;26.50;17.73;;;;;;;14.33;36.23;102379.19;5112079;28;20078;-62
2023/02/10 00:34:21;;;;;;;27.15;17.33;;;;;;;14.31;36.79;102383.75;5112060;28;20406;-62
2023/02/10 00:36:50;;;;;;;27.27;17.77;;;;;;;14.28;36.55;102373.16;5111912;28;20044;-62
2023/02/10 00:39:18;;;;;;;25.60;17.42;;;;;;;14.24;36.76;102379.56;5111783;28;20066;-62
2023/02/10 00:41:46;;;;;;;28.20;18.45;;;;;;;14.22;36.30;102380.56;5111766;28;20105;-62
2023/02/10 00:44:14;;;;;;;26.40;17.85;;;;;;;14.18;36.14;102379.81;5112037;28;20048;-62
2023/02/10 00:46:42;;;;;;;27.77;18.60;;;;;;;14.17;36.55;102390.59;5112009;28;20126;-62
2023/02/10 00:49:12;;;;;;;26.13;17.90;;;;;;;14.14;36.41;102382.69;5111925;28;20066;-61
2023/02/10 00:51:41;;;;;;;25.45;17.83;;;;;;;14.10;36.70;102384.66;5111740;28;20071;-62
2023/02/10 00:54:11;;;;;;;26.73;17.55;;;;;;;14.07;36.57;102381.19;5111658;28;20050;-63
2023/02/10 00:56:40;;;;;;;26.85;18.05;;;;;;;14.04;36.58;102375.03;5115784;28;20047;-63
2023/02/10 00:59:08;;;;;;;25.13;17.83;;;;;;;13.98;36.52;102371.72;5115664;28;20063;-64
2023/02/10 01:01:36;;;;;;;26.98;18.83;;;;;;;13.99;36.74;102378.81;5115508;28;20694;-63
2023/02/10 01:04:05;;;;;;;31.05;19.92;;;;;;;13.95;36.66;102374.53;5115383;28;20119;-64
2023/02/10 01:06:34;;;;;;;29.77;19.45;;;;;;;13.91;36.78;102370.22;5115443;28;20039;-61
2023/02/10 01:09:03;;;;;;;28.98;18.85;;;;;;;13.90;36.75;102371.19;5115138;28;20078;-62
2023/02/10 01:11:32;;;;;;;30.20;19.00;;;;;;;13.91;37.24;102370.22;5115172;28;20051;-63
2023/02/10 01:14:00;;;;;;;25.15;17.95;;;;;;;13.93;37.38;102368.34;5115257;28;20462;-63
2023/02/10 01:16:28;;;;;;;27.33;18.50;;;;;;;14.00;37.61;102360.00;5115228;28;20442;-63
2023/02/10 01:18:56;;;;;;;27.77;18.45;;;;;;;14.09;37.79;102361.44;5115162;28;20108;-63
2023/02/10 01:21:24;;;;;;;27.85;18.42;;;;;;;14.18;37.62;102352.97;5115058;28;20123;-62
2023/02/10 01:23:54;;;;;;;27.27;18.27;;;;;;;14.29;37.67;102361.47;5115164;28;20116;-64
2023/02/10 01:26:22;;;;;;;31.13;19.48;;;;;;;14.38;37.40;102356.63;5115063;28;20047;-63
2023/02/10 01:28:50;;;;;;;28.13;17.98;;;;;;;14.50;37.34;102348.09;5115013;28;20075;-63
2023/02/10 01:31:21;;;;;;;25.88;18.05;;;;;;;14.56;37.10;102347.81;5114813;28;20152;-63
2023/02/10 01:33:52;;;;;;;28.67;18.50;;;;;;;14.67;37.19;102361.66;5114802;28;20470;-63
2023/02/10 01:36:22;;;;;;;25.60;18.27;;;;;;;14.75;37.08;102354.13;5114710;28;20044;-63
2023/02/10 01:38:52;;;;;;;25.85;17.58;;;;;;;14.88;36.94;102365.22;5114735;28;20055;-62
2023/02/10 01:41:23;;;;;;;26.67;17.83;;;;;;;14.95;36.65;102345.16;5114792;28;20055;-61
2023/02/10 01:43:58;;;;;;;28.05;18.60;;;;;;;15.00;36.75;102355.72;5114769;28;20048;-63
2023/02/10 01:46:27;;;;;;;27.05;18.25;;;;;;;15.00;36.48;102348.53;5114648;28;20084;-61
2023/02/10 01:48:58;;;;;;;28.83;18.92;;;;;;;15.02;36.47;102357.38;5114466;28;20081;-62
2023/02/10 01:51:34;;;;;;;27.17;18.65;;;;;;;15.03;36.60;102347.50;5114535;28;20054;-63
2023/02/10 01:54:03;;;;;;;27.70;18.77;;;;;;;15.02;36.48;102351.13;5114340;28;20052;-63
2023/02/10 01:56:33;;;;;;;28.23;19.02;;;;;;;15.00;36.54;102342.28;5114428;28;20508;-62
2023/02/10 01:59:01;;;;;;;31.38;19.75;;;;;;;14.97;36.53;102346.00;5114283;28;20082;-62
2023/02/10 02:01:30;;;;;;;28.70;19.20;;;;;;;14.95;36.51;102349.66;5114286;28;20079;-62
2023/02/10 02:04:02;;;;;;;26.50;19.00;;;;;;;14.93;36.54;102356.94;5114165;28;20044;-62
2023/02/10 02:06:31;;;;;;;27.25;18.85;;;;;;;14.87;36.68;102353.59;5113729;28;20446;-62
2023/02/10 02:08:59;;;;;;;27.23;19.10;;;;;;;14.84;36.68;102353.72;5114256;28;20071;-63
2023/02/10 02:11:34;;;;;;;27.25;19.55;;;;;;;14.80;36.52;102354.81;5114013;28;20054;-61
2023/02/10 02:14:15;;;;;;;29.08;19.88;;;;;;;14.76;36.60;102350.47;5114069;28;20420;-63
2023/02/10 02:17:02;;;;;;;28.10;19.58;;;;;;;14.71;36.59;102341.78;5114033;28;20466;-63
2023/02/10 02:20:40;;;;;;;29.90;20.05;;;;;;;14.67;36.16;102345.56;5111842;28;20500;-63
2023/02/10 02:23:17;;;;;;;27.35;18.50;;;;;;;14.63;36.69;102343.91;5113904;28;20043;-63
2023/02/10 02:26:18;;;;;;;29.48;19.65;;;;;;;14.59;36.66;102342.31;5080254;28;20124;-62
2023/02/10 02:29:05;;;;;;;31.75;20.73;;;;;;;14.54;36.67;102344.31;5113765;28;20075;-64
2023/02/10 02:31:52;;;;;;;28.50;19.85;;;;;;;14.50;36.64;102340.03;5113593;28;20155;-62
2023/02/10 02:34:29;;;;;;;28.30;19.48;;;;;;;14.45;36.74;102339.34;5113636;28;20044;-63
2023/02/10 02:37:00;;;;;;;26.67;19.52;;;;;;;14.42;36.68;102342.16;5113748;28;20085;-62
2023/02/10 02:39:29;;;;;;;30.83;20.58;;;;;;;14.36;36.58;102340.59;5113467;28;20055;-63
2023/02/10 02:42:16;;;;;;;27.92;19.63;;;;;;;14.32;36.61;102345.22;5113585;28;20044;-61
2023/02/10 02:44:47;;;;;;;27.42;19.13;;;;;;;14.28;36.51;102340.94;5113401;28;20050;-61
2023/02/10 02:47:28;;;;;;;28.88;19.90;;;;;;;14.22;36.80;102333.13;5113360;28;20082;-63
2023/02/10 02:50:07;;;;;;;31.10;20.48;;;;;;;14.20;36.55;102342.19;5113305;28;20130;-63
2023/02/10 02:52:46;;;;;;;30.23;20.63;;;;;;;14.15;36.35;102341.50;5113237;28;20100;-62
2023/02/10 02:55:23;;;;;;;29.88;21.20;;;;;;;14.11;36.74;102343.44;5113269;28;20048;-62
2023/02/10 02:57:56;;;;;;;28.65;19.77;;;;;;;14.07;36.88;102339.13;5113143;28;20040;-62
2023/02/10 03:00:28;;;;;;;30.40;20.92;;;;;;;14.02;36.60;102341.16;5113379;28;20118;-62
2023/02/10 03:02:59;;;;;;;30.38;20.20;;;;;;;13.99;36.75;102344.84;5113094;28;20122;-62
2023/02/10 03:05:31;;;;;;;31.33;20.88;;;;;;;13.97;36.30;102343.13;5113203;28;20123;-63
2023/02/10 03:07:59;;;;;;;31.77;20.00;;;;;;;13.93;36.64;102344.22;5113107;28;20134;-63
2023/02/10 03:10:27;;;;;;;29.60;20.17;;;;;;;13.88;36.73;102335.47;5113539;28;20050;-63
2023/02/10 03:12:55;;;;;;;31.40;20.67;;;;;;;13.85;36.72;102340.97;5112996;28;20391;-62
2023/02/10 03:15:24;;;;;;;26.90;19.70;;;;;;;13.81;36.32;102331.31;5112929;28;20377;-61
2023/02/10 03:17:52;;;;;;;30.00;20.02;;;;;;;13.77;36.39;102343.06;5112463;28;20054;-63
2023/02/10 03:20:21;;;;;;;29.25;20.17;;;;;;;13.72;36.72;102341.47;5112458;28;20044;-62
2023/02/10 03:22:49;;;;;;;32.60;20.55;;;;;;;13.70;36.54;102337.97;5112776;28;20032;-63
2023/02/10 03:25:18;;;;;;;31.85;20.83;;;;;;;13.66;36.99;102336.34;5112768;28;20078;-62
2023/02/10 03:27:46;;;;;;;29.33;20.52;;;;;;;13.62;36.61;102332.06;5113045;28;20138;-63
2023/02/10 03:30:14;;;;;;;27.08;20.08;;;;;;;13.60;36.60;102333.88;5112663;28;20072;-63
2023/02/10 03:32:42;;;;;;;30.30;20.52;;;;;;;13.57;36.47;102334.03;5112504;28;20047;-62
2023/02/10 03:35:10;;;;;;;29.98;21.08;;;;;;;13.51;36.84;102334.28;5112639;28;20051;-63
2023/02/10 03:37:40;;;;;;;26.95;19.23;;;;;;;13.50;36.43;102337.00;5112640;28;20404;-63
2023/02/10 03:40:09;;;;;;;29.90;20.48;;;;;;;13.47;36.42;102338.00;5112439;28;20529;-62
2023/02/10 03:42:37;;;;;;;27.23;19.23;;;;;;;13.44;36.65;102333.66;5112566;28;20062;-63
2023/02/10 03:45:06;;;;;;;27.27;18.80;;;;;;;13.46;37.04;102330.91;5112486;28;20043;-63
2023/02/10 03:47:34;;;;;;;28.98;19.35;;;;;;;13.46;37.45;102331.78;5112413;28;20052;-62
2023/02/10 03:50:02;;;;;;;28.95;19.02;;;;;;;13.54;37.46;102328.78;5112287;28;20039;-64
2023/02/10 03:52:30;;;;;;;27.60;18.70;;;;;;;13.62;37.33;102324.00;5112452;28;20134;-62
2023/02/10 03:55:00;;;;;;;29.98;19.33;;;;;;;13.71;37.20;102315.59;5112524;28;20067;-63
2023/02/10 03:57:28;;;;;;;28.00;18.17;;;;;;;13.82;37.28;102317.84;5112445;28;20580;-64
2023/02/10 03:59:56;;;;;;;27.50;18.75;;;;;;;13.91;37.02;102316.59;5112302;28;20055;-63
2023/02/10 04:02:24;;;;;;;29.27;19.05;;;;;;;14.00;36.91;102305.47;5112192;28;20054;-63
2023/02/10 04:04:52;;;;;;;28.20;19.00;;;;;;;14.10;36.86;102308.63;5112222;28;20108;-63
2023/02/10 04:07:20;;;;;;;28.13;19.67;;;;;;;14.18;36.86;102310.03;5112130;28;20089;-64
2023/02/10 04:09:49;;;;;;;29.65;18.40;;;;;;;14.25;36.69;102303.47;5112063;28;20047;-64
2023/02/10 04:12:18;;;;;;;27.48;18.63;;;;;;;14.38;36.53;102303.81;5112042;28;20100;-64
2023/02/10 04:14:46;;;;;;;26.90;18.80;;;;;;;14.47;36.27;102297.19;5112276;28;20044;-63
2023/02/10 04:17:14;;;;;;;26.60;18.63;;;;;;;14.56;36.25;102296.78;5111996;28;20182;-63
2023/02/10 04:19:43;;;;;;;26.45;17.90;;;;;;;14.65;36.07;102301.75;5094011;28;20044;-64
2023/02/10 04:22:11;;;;;;;25.85;18.20;;;;;;;14.70;36.17;102302.44;5111995;28;20047;-63
2023/02/10 04:24:39;;;;;;;27.08;18.50;;;;;;;14.75;36.00;102308.44;5112014;28;20485;-62
2023/02/10 04:27:07;;;;;;;26.52;18.13;;;;;;;14.77;36.06;102303.03;5111992;28;20044;-63
2023/02/10 04:29:39;;;;;;;25.88;17.85;;;;;;;14.77;36.10;102303.03;5112445;28;20043;-65
2023/02/10 04:32:08;;;;;;;27.93;18.40;;;;;;;14.75;36.08;102313.81;5116035;28;20043;-63
2023/02/10 04:34:36;;;;;;;26.80;18.88;;;;;;;14.77;35.86;102314.66;5115939;28;20043;-62
2023/02/10 04:37:05;;;;;;;28.80;19.08;;;;;;;14.78;35.92;102326.25;5115961;28;20043;-63
2023/02/10 04:39:33;;;;;;;25.25;18.05;;;;;;;14.80;36.11;102325.25;5116052;28;20047;-62
2023/02/10 04:42:01;;;;;;;26.00;18.17;;;;;;;14.88;35.97;102322.22;5117071;28;20072;-63
2023/02/10 04:44:29;;;;;;;27.08;17.80;;;;;;;14.95;36.03;102328.16;5117881;28;20067;-62
2023/02/10 04:46:59;;;;;;;28.33;18.67;;;;;;;15.00;35.83;102332.41;5117032;28;20043;-62
2023/02/10 04:49:27;;;;;;;27.10;20.02;;;;;;;15.05;35.76;102334.84;5116042;28;20043;-63
2023/02/10 04:51:55;;;;;;;26.70;18.70;;;;;;;15.08;35.82;102335.63;5115652;28;20039;-62
2023/02/10 04:54:24;;;;;;;26.52;18.52;;;;;;;15.11;35.61;102345.34;5115734;28;20079;-62
2023/02/10 04:56:53;;;;;;;24.67;18.50;;;;;;;15.14;35.74;102346.06;5115479;28;21049;-63
2023/02/10 04:59:21;;;;;;;26.27;17.88;;;;;;;15.20;35.55;102344.91;5115522;28;20043;-63
2023/02/10 05:01:49;;;;;;;26.10;18.55;;;;;;;15.28;35.58;102352.63;5115479;28;20127;-63
2023/02/10 05:04:18;;;;;;;24.48;18.10;;;;;;;15.33;35.46;102350.59;5115433;28;20134;-61
2023/02/10 05:06:47;;;;;;;25.98;18.15;;;;;;;15.39;35.45;102350.31;5115412;28;20043;-63
2023/02/10 05:09:15;;;;;;;27.95;18.77;;;;;;;15.45;35.39;102355.41;5115176;28;20054;-62
2023/02/10 05:11:43;;;;;;;25.88;17.70;;;;;;;15.51;35.24;102356.91;5115171;28;20044;-61
2023/02/10 05:14:11;;;;;;;26.25;18.27;;;;;;;15.56;35.21;102362.97;5115200;28;20043;-62
2023/02/10 05:16:39;;;;;;;25.20;18.52;;;;;;;15.60;35.27;102360.06;5115192;28;20550;-63
2023/02/10 05:19:09;;;;;;;25.88;18.67;;;;;;;15.71;35.19;102356.88;5115137;28;20075;-64
2023/02/10 05:21:38;;;;;;;23.20;17.52;;;;;;;15.79;34.92;102354.69;5114940;28;20601;-61
2023/02/10 05:24:07;;;;;;;25.95;18.00;;;;;;;15.85;34.98;102354.38;5114866;28;20058;-64
2023/02/10 05:26:35;;;;;;;24.23;18.08;;;;;;;15.91;34.83;102356.75;5114888;28;20069;-61
2023/02/10 05:29:03;;;;;;;24.85;17.92;;;;;;;15.98;34.87;102360.91;5115098;28;20059;-61
2023/02/10 05:31:31;;;;;;;27.25;18.13;;;;;;;16.04;34.62;102362.44;5112851;28;20067;-62
2023/02/10 05:33:59;;;;;;;24.80;18.42;;;;;;;16.09;34.71;102362.19;5114906;28;20048;-61
2023/02/10 05:36:27;;;;;;;26.38;17.83;;;;;;;16.10;34.63;102364.78;5106689;28;20082;-61
2023/02/10 05:41:42;;;;;;;27.02;18.02;;;;;;;16.12;34.53;102370.13;5097637;28;20044;-62
2023/02/10 05:44:10;;;;;;;25.23;18.17;;;;;;;16.09;34.46;102373.81;5100998;28;20042;-61
2023/02/10 05:46:39;;;;;;;25.75;18.10;;;;;;;16.10;34.54;102377.38;5094077;28;20055;-61
2023/02/10 05:49:07;;;;;;;25.80;18.13;;;;;;;16.10;34.49;102370.19;5094159;28;20511;-63
2023/02/10 05:51:35;;;;;;;25.25;18.45;;;;;;;16.10;34.53;102366.63;5096288;28;20052;-62
2023/02/10 05:54:05;;;;;;;25.05;18.00;;;;;;;16.10;34.52;102353.16;5103028;28;20040;-62
2023/02/10 05:56:33;;;;;;;26.13;18.48;;;;;;;16.11;34.39;102357.59;5094282;28;20062;-62
2023/02/10 05:59:01;;;;;;;26.73;18.55;;;;;;;16.13;34.59;102358.41;5093970;28;20051;-62
2023/02/10 06:01:30;;;;;;;25.27;17.95;;;;;;;16.13;34.40;102356.59;5076012;28;20040;-62
2023/02/10 06:03:58;;;;;;;25.27;17.75;;;;;;;16.19;34.47;102368.84;5093676;28;20048;-62
2023/02/10 06:06:26;;;;;;;25.15;17.63;;;;;;;16.22;34.38;102366.03;5093724;28;20152;-62
2023/02/10 06:08:54;;;;;;;23.25;17.55;;;;;;;16.27;34.23;102372.03;5096948;28;20115;-62
2023/02/10 06:11:24;;;;;;;24.80;18.13;;;;;;;16.29;34.37;102360.22;5096508;28;20044;-62
2023/02/10 06:13:55;;;;;;;26.40;17.63;;;;;;;16.34;34.26;102357.31;5104942;28;20147;-63
2023/02/10 06:16:23;;;;;;;24.63;17.38;;;;;;;16.39;34.17;102354.38;5113724;28;20443;-61
2023/02/10 06:18:51;;;;;;;23.75;16.73;;;;;;;16.47;34.22;102362.94;5113686;28;20168;-63
2023/02/10 06:21:22;;;;;;;25.77;17.98;;;;;;;16.52;34.11;102372.53;5113913;28;20055;-61
2023/02/10 06:23:51;;;;;;;25.73;18.08;;;;;;;16.55;33.93;102377.75;5113695;28;20071;-63
2023/02/10 06:26:19;;;;;;;24.63;17.02;;;;;;;16.55;33.84;102380.44;5113659;28;20044;-62
2023/02/10 06:28:49;;;;;;;24.75;17.35;;;;;;;16.55;34.06;102379.59;5111569;28;20051;-62
2023/02/10 06:31:17;;;;;;;24.02;17.27;;;;;;;16.55;34.24;102383.16;5093497;28;20071;-61
2023/02/10 06:33:45;;;;;;;26.65;18.23;;;;;;;16.56;34.32;102386.72;5104615;28;20439;-62
2023/02/10 06:36:13;;;;;;;24.95;16.40;;;;;;;16.56;34.37;102395.66;5113561;28;20188;-61
2023/02/10 06:38:42;;;;;;;25.10;16.88;;;;;;;16.52;34.49;102404.00;5113300;28;20055;-62
2023/02/10 06:41:10;;;;;;;28.05;17.63;;;;;;;16.46;34.66;102409.69;5097763;27;20044;-62
2023/02/10 06:43:38;;;;;;;25.63;17.15;;;;;;;16.39;34.70;102409.09;5107195;28;20223;-63
2023/02/10 06:46:08;;;;;;;25.30;18.08;;;;;;;16.29;34.64;102419.47;5106140;28;20130;-65
2023/02/10 06:48:36;;;;;;;24.35;17.35;;;;;;;16.26;34.70;102424.16;5113257;28;20105;-64
2023/02/10 06:51:04;;;;;;;24.52;18.05;;;;;;;16.18;34.72;102416.44;5113284;28;20518;-63
2023/02/10 06:53:33;;;;;;;25.60;17.67;;;;;;;16.09;34.65;102410.66;5113027;28;20075;-63
2023/02/10 06:56:01;;;;;;;27.05;18.13;;;;;;;16.00;34.59;102415.53;5112950;28;20104;-63
2023/02/10 06:58:29;;;;;;;27.10;19.45;;;;;;;15.94;34.37;102412.28;5112995;28;20044;-63
2023/02/10 07:00:58;;;;;;;28.05;17.92;;;;;;;15.84;34.28;102414.53;5112944;28;20039;-65
2023/02/10 07:03:28;;;;;;;25.63;17.75;;;;;;;15.77;34.19;102413.09;5112933;28;20067;-64
2023/02/10 07:05:56;;;;;;;28.20;18.98;;;;;;;15.68;33.98;102410.81;5113212;28;20043;-63
2023/02/10 07:08:24;;;;;;;25.83;18.15;;;;;;;15.58;33.50;102407.66;5112884;28;20047;-63
2023/02/10 07:10:53;;;;;;;27.10;19.17;;;;;;;15.52;33.21;102410.63;5112873;28;20053;-65
2023/02/10 07:13:21;;;;;;;27.40;18.10;;;;;;;15.43;33.49;102411.94;5112699;28;20051;-62
2023/02/10 07:15:49;;;;;;;27.02;19.00;;;;;;;15.38;33.45;102424.72;5112735;28;20130;-63
2023/02/10 07:18:18;;;;;;;25.42;17.65;;;;;;;15.31;33.56;102427.75;5112669;28;20047;-65
2023/02/10 07:20:47;;;;;;;28.75;18.58;;;;;;;15.19;33.55;102423.81;5112806;28;20055;-63
2023/02/10 07:23:16;;;;;;;27.17;17.67;;;;;;;15.16;33.79;102423.97;5112480;28;20087;-64
2023/02/10 07:25:57;;;;;;;26.17;17.70;;;;;;;15.06;34.37;102417.25;5112430;28;20052;-65
2023/02/10 07:28:25;;;;;;;28.77;18.67;;;;;;;15.05;34.42;102416.34;5112315;28;20039;-64
2023/02/10 07:30:54;;;;;;;26.20;18.10;;;;;;;15.09;35.03;102422.50;5112534;28;20048;-63
2023/02/10 07:33:22;;;;;;;24.98;17.27;;;;;;;15.12;35.06;102414.28;5112325;28;20413;-63
2023/02/10 07:35:51;;;;;;;25.10;17.48;;;;;;;15.16;35.20;102418.59;5112208;28;20489;-64
2023/02/10 07:38:20;;;;;;;25.17;17.88;;;;;;;15.23;35.16;102420.03;5112439;28;20050;-63
2023/02/10 07:40:48;;;;;;;25.20;16.90;;;;;;;15.26;35.12;102411.84;5091870;28;20051;-63
2023/02/10 07:43:16;;;;;;;29.58;17.67;;;;;;;15.33;35.14;102416.00;5092190;28;20526;-63
2023/02/10 07:45:44;;;;;;;26.23;17.98;;;;;;;15.37;35.06;102398.78;5091957;28;20051;-64
2023/02/10 07:48:12;;;;;;;26.52;18.10;;;;;;;15.42;34.96;102401.25;5091908;28;20067;-64
2023/02/10 07:50:41;;;;;;;26.00;18.83;;;;;;;15.49;34.86;102409.91;5091930;28;20050;-65
2023/02/10 07:53:10;;;;;;;26.40;18.17;;;;;;;15.55;34.83;102415.03;5091589;28;20048;-64
2023/02/10 07:55:39;;;;;;;26.08;17.05;;;;;;;15.61;34.67;102410.25;5106318;28;20046;-63
2023/02/10 07:58:08;;;;;;;28.98;18.13;;;;;;;15.68;34.68;102416.22;5090949;28;20043;-64
2023/02/10 08:00:36;;;;;;;26.38;17.80;;;;;;;15.74;34.66;102418.63;5091228;28;20074;-64
2023/02/10 08:03:05;;;;;;;25.88;18.13;;;;;;;15.78;34.50;102425.59;5090819;28;20047;-64
2023/02/10 08:05:36;;;;;;;24.90;17.90;;;;;;;15.82;34.51;102424.47;5090433;28;20036;-64
2023/02/10 08:08:04;;;;;;;25.02;17.25;;;;;;;15.83;34.48;102426.25;5091051;28;20048;-63
2023/02/10 08:10:34;;;;;;;26.85;17.63;;;;;;;15.82;34.47;102432.56;5091413;28;20052;-64
2023/02/10 08:13:02;;;;;;;29.08;18.17;;;;;;;15.81;34.47;102436.19;5091456;28;20448;-64
2023/02/10 08:15:30;;;;;;;25.45;17.83;;;;;;;15.78;34.40;102444.41;5091338;28;20130;-63
2023/02/10 08:17:59;;;;;;;27.83;18.38;;;;;;;15.74;34.49;102437.47;5091568;28;20056;-62
2023/02/10 08:20:27;;;;;;;26.80;17.77;;;;;;;15.69;34.37;102434.97;5091395;28;20539;-63
2023/02/10 08:22:56;;;;;;;28.65;18.65;;;;;;;15.66;34.47;102439.63;5091520;28;20079;-63
2023/02/10 08:25:24;;;;;;;28.65;19.83;;;;;;;15.61;34.28;102439.81;5091444;28;20048;-65
2023/02/10 08:27:54;;;;;;;27.52;19.15;;;;;;;15.55;34.15;102428.47;5091374;28;20105;-62
2023/02/10 08:30:22;;;;;;;27.58;18.83;;;;;;;15.50;34.15;102433.16;5091311;28;20077;-62
2023/02/10 08:32:51;;;;;;;26.83;18.75;;;;;;;15.45;34.22;102436.97;5091269;28;20079;-63
2023/02/10 08:35:19;;;;;;;27.30;20.25;;;;;;;15.39;34.06;102434.53;5091098;28;20079;-63
2023/02/10 08:37:47;;;;;;;30.98;20.02;;;;;;;15.34;33.85;102441.94;5091418;28;20094;-63
2023/02/10 08:40:15;;;;;;;27.05;19.10;;;;;;;15.30;33.71;102445.72;5107450;28;20063;-64
2023/02/10 08:42:43;;;;;;;27.50;19.75;;;;;;;15.23;33.86;102446.91;5111740;28;20044;-63
2023/02/10 08:45:13;;;;;;;29.00;20.45;;;;;;;15.18;33.66;102433.69;5111839;28;20138;-63
2023/02/10 08:47:44;;;;;;;28.30;19.08;;;;;;;15.14;33.87;102439.28;5111769;28;20126;-64
2023/02/10 08:50:12;;;;;;;27.38;19.52;;;;;;;15.09;33.52;102433.25;5111668;28;20044;-63
2023/02/10 08:52:40;;;;;;;30.25;20.95;;;;;;;15.05;33.44;102439.69;5111637;28;20044;-62
2023/02/10 08:55:08;;;;;;;26.50;19.00;;;;;;;15.00;33.30;102439.03;5111365;28;20044;-62
2023/02/10 08:57:37;;;;;;;26.48;18.70;;;;;;;14.94;33.46;102439.28;5111668;28;20504;-63
2023/02/10 09:00:10;;;;;;;28.65;18.52;;;;;;;14.88;33.20;102446.69;5111561;28;20503;-63
2023/02/10 09:02:39;;;;;;;29.52;18.67;;;;;;;14.82;33.71;102446.94;5111597;28;20070;-64
2023/02/10 09:05:08;;;;;;;25.83;17.98;;;;;;;14.78;33.61;102429.22;5111449;28;20046;-63
2023/02/10 09:07:38;;;;;;;26.15;17.85;;;;;;;14.72;33.57;102429.47;5111475;28;20047;-63
2023/02/10 09:10:09;;;;;;;26.65;18.77;;;;;;;14.67;34.21;102434.19;5111455;28;20473;-64
2023/02/10 09:12:38;;;;;;;25.83;18.58;;;;;;;14.62;34.25;102443.38;5111646;28;20094;-63
2023/02/10 09:15:07;;;;;;;27.60;18.20;;;;;;;14.58;34.32;102434.56;5111233;28;20139;-64
2023/02/10 09:17:36;;;;;;;25.45;18.08;;;;;;;14.53;34.36;102425.81;5113472;28;20047;-64
2023/02/10 09:20:06;;;;;;;27.38;18.83;;;;;;;14.52;34.05;102424.09;5115066;28;20044;-64
2023/02/10 09:22:37;;;;;;;27.55;18.50;;;;;;;14.48;34.09;102431.41;5114847;28;20126;-63
2023/02/10 09:25:06;;;;;;;26.42;18.83;;;;;;;14.46;34.43;102432.38;5114873;28;20075;-63
2023/02/10 09:27:34;;;;;;;27.27;18.40;;;;;;;14.40;34.33;102430.81;5114968;28;20047;-64
2023/02/10 09:30:02;;;;;;;28.63;18.60;;;;;;;14.39;34.37;102433.56;5114890;28;20051;-63
2023/02/10 09:32:31;;;;;;;25.88;18.35;;;;;;;14.37;34.46;102422.00;5114790;28;20395;-62
2023/02/10 09:34:59;;;;;;;27.90;19.10;;;;;;;14.33;34.52;102427.50;5114727;28;20035;-64
2023/02/10 09:37:29;;;;;;;30.90;19.05;;;;;;;14.30;34.27;102430.31;5114811;28;20487;-63
2023/02/10 09:39:57;;;;;;;26.60;19.38;;;;;;;14.29;33.97;102436.63;5096733;28;20179;-63
2023/02/10 09:42:47;;;;;;;27.70;19.13;;;;;;;14.29;34.17;102441.13;5114674;28;20043;-62
2023/02/10 09:45:23;;;;;;;28.67;19.40;;;;;;;14.25;34.37;102431.44;5114487;28;20047;-62
2023/02/10 09:47:53;;;;;;;28.38;19.30;;;;;;;14.25;34.11;102435.00;5114459;28;20047;-62
2023/02/10 09:50:36;;;;;;;28.75;20.13;;;;;;;14.23;34.28;102423.44;5114479;28;20123;-63
2023/02/10 09:53:11;;;;;;;27.60;19.02;;;;;;;14.23;34.49;102438.69;5114302;28;20048;-64
2023/02/10 09:55:49;;;;;;;26.50;18.73;;;;;;;14.20;34.46;102423.59;5114040;28;20053;-65
2023/02/10 09:58:25;;;;;;;27.98;19.35;;;;;;;14.21;34.08;102433.38;5114415;28;20097;-64
2023/02/10 10:00:59;;;;;;;26.17;18.55;;;;;;;14.19;34.25;102424.53;5114263;28;20040;-64
2023/02/10 10:03:32;;;;;;;24.80;17.33;;;;;;;14.22;33.84;102421.72;5114182;28;20051;-65
2023/02/10 10:06:12;;;;;;;25.42;18.15;;;;;;;14.22;34.09;102412.78;5114312;28;20080;-63
2023/02/10 10:08:48;;;;;;;24.65;17.30;;;;;;;14.23;33.97;102409.16;5114390;28;20051;-64
2023/02/10 10:11:26;;;;;;;24.33;17.38;;;;;;;14.23;33.84;102412.72;5114221;28;20061;-63
2023/02/10 10:13:56;;;;;;;25.08;17.38;;;;;;;14.25;33.69;102413.53;5114341;28;20109;-64
2023/02/10 10:17:09;;;;;;;24.23;17.17;;;;;;;14.25;34.00;102418.88;5113885;28;20051;-63
2023/02/10 10:19:53;;;;;;;22.20;15.30;;;;;;;14.26;33.33;102409.03;5056950;28;20045;-64
2023/02/10 10:22:43;;;;;;;25.20;15.60;;;;;;;14.29;33.29;102409.78;5113780;28;20454;-64
2023/02/10 10:25:34;;;;;;;19.58;14.32;;;;;;;14.29;33.34;102415.16;5113826;28;20039;-64
2023/02/10 10:28:14;;;;;;;19.90;14.20;;;;;;;14.31;33.45;102418.66;5113490;28;20346;-64
2023/02/10 10:30:46;;;;;;;19.40;13.13;;;;;;;14.31;33.56;102413.28;5113840;28;20550;-64
2023/02/10 10:33:29;;;;;;;20.33;13.68;;;;;;;14.32;33.52;102415.03;5113698;28;20043;-65
2023/02/10 10:36:01;;;;;;;19.40;13.50;;;;;;;14.36;33.63;102404.16;5113700;28;20532;-63
2023/02/10 10:38:31;;;;;;;17.88;13.00;;;;;;;14.39;33.60;102406.72;5113490;28;20048;-65
2023/02/10 10:41:08;;;;;;;19.92;13.27;;;;;;;14.42;33.81;102403.91;5113597;28;20416;-64
2023/02/10 10:43:43;;;;;;;17.67;12.77;;;;;;;14.43;33.91;102400.28;5113512;28;20315;-65
2023/02/10 10:46:14;;;;;;;19.25;12.57;;;;;;;14.45;33.80;102391.22;5113480;28;20039;-63
2023/02/10 10:48:43;;;;;;;18.10;12.20;;;;;;;14.47;33.66;102388.47;5113157;28;20047;-64
2023/02/10 10:51:13;;;;;;;17.02;11.55;;;;;;;14.50;33.94;102396.44;5113308;28;20101;-65
2023/02/10 10:53:44;;;;;;;17.88;11.60;;;;;;;14.52;33.91;102389.19;5113179;28;20044;-63
2023/02/10 10:56:21;;;;;;;18.48;11.15;;;;;;;14.53;33.67;102380.16;5112928;28;20040;-65
2023/02/10 10:58:50;;;;;;;16.02;11.25;;;;;;;14.58;33.50;102372.81;5112893;28;20047;-65
2023/02/10 11:01:31;;;;;;;16.20;10.80;;;;;;;14.56;33.75;102359.41;5112624;28;20065;-65
2023/02/10 11:04:07;;;;;;;14.98;10.68;;;;;;;14.60;33.69;102365.56;5112931;28;20067;-64
2023/02/10 11:06:37;;;;;;;15.25;10.48;;;;;;;14.61;33.61;102348.50;5113004;28;20040;-64
2023/02/10 11:09:18;;;;;;;15.15;11.27;;;;;;;14.65;33.66;102351.91;5112978;28;20400;-65
2023/02/10 11:11:47;;;;;;;15.82;10.75;;;;;;;14.66;33.81;102348.28;5112812;28;20118;-64
2023/02/10 11:14:18;;;;;;;15.15;10.60;;;;;;;14.70;33.76;102344.53;5112926;28;20055;-64
2023/02/10 11:16:49;;;;;;;14.05;10.05;;;;;;;14.72;33.83;102342.66;5112799;28;20451;-64
2023/02/10 11:19:20;;;;;;;14.68;10.25;;;;;;;14.74;33.81;102343.44;5112695;28;20040;-63
2023/02/10 11:21:49;;;;;;;14.10;9.90;;;;;;;14.77;33.84;102357.63;5112505;28;20063;-65
2023/02/10 11:24:21;;;;;;;14.02;9.65;;;;;;;14.77;33.73;102352.25;5112896;28;20455;-64
2023/02/10 11:26:59;;;;;;;13.93;9.50;;;;;;;14.80;33.81;102357.47;5112695;28;20142;-63
2023/02/10 11:29:29;;;;;;;13.77;9.93;;;;;;;14.81;33.83;102359.22;5112992;28;20333;-63